sensor_id;sensor_type;location;lat;lon;timestamp;P1;durP1;ratioP1;P2;durP2;ratioP2
3597;SDS011;1813;52.016;8.714;2023-03-01T00:00:11;24.80;;;16.50;;
3597;SDS011;1813;52.016;8.714;2023-03-01T00:02:46;26.30;;;15.47;;
3597;SDS011;1813;52.016;8.714;2023-03-01T00:05:20;29.43;;;17.33;;
3597;SDS011;1813;52.016;8.714;2023-03-01T00:07:54;28.33;;;16.60;;
3597;SDS011;1813;52.016;8.714;2023-03-01T00:10:28;28.20;;;17.93;;
3597;SDS011;1813;52.016;8.714;2023-03-01T00:13:02;31.00;;;18.00;;
3597;SDS011;1813;52.016;8.714;2023-03-01T00:15:40;25.63;;;17.97;;
3597;SDS011;1813;52.016;8.714;2023-03-01T00:18:14;27.23;;;17.70;;
3597;SDS011;1813;52.016;8.714;2023-03-01T00:20:49;27.00;;;17.70;;
3597;SDS011;1813;52.016;8.714;2023-03-01T00:23:24;31.87;;;18.37;;
3597;SDS011;1813;52.016;8.714;2023-03-01T00:26:02;31.90;;;19.87;;
3597;SDS011;1813;52.016;8.714;2023-03-01T00:28:39;32.63;;;20.50;;
3597;SDS011;1813;52.016;8.714;2023-03-01T00:31:17;33.23;;;20.40;;
3597;SDS011;1813;52.016;8.714;2023-03-01T00:33:53;32.10;;;19.90;;
3597;SDS011;1813;52.016;8.714;2023-03-01T00:36:29;30.93;;;18.90;;
3597;SDS011;1813;52.016;8.714;2023-03-01T00:39:05;34.70;;;20.23;;
3597;SDS011;1813;52.016;8.714;2023-03-01T00:41:43;31.93;;;19.63;;
3597;SDS011;1813;52.016;8.714;2023-03-01T00:44:17;31.13;;;18.40;;
3597;SDS011;1813;52.016;8.714;2023-03-01T00:46:54;30.90;;;18.13;;
3597;SDS011;1813;52.016;8.714;2023-03-01T00:49:28;29.17;;;18.47;;
3597;SDS011;1813;52.016;8.714;2023-03-01T00:52:02;31.70;;;19.03;;
3597;SDS011;1813;52.016;8.714;2023-03-01T00:54:36;27.10;;;17.83;;
3597;SDS011;1813;52.016;8.714;2023-03-01T00:57:10;29.90;;;18.07;;
3597;SDS011;1813;52.016;8.714;2023-03-01T00:59:44;29.70;;;18.33;;
3597;SDS011;1813;52.016;8.714;2023-03-01T01:02:20;25.53;;;17.70;;
3597;SDS011;1813;52.016;8.714;2023-03-01T01:04:55;28.17;;;17.50;;
3597;SDS011;1813;52.016;8.714;2023-03-01T01:07:30;26.50;;;17.87;;
3597;SDS011;1813;52.016;8.714;2023-03-01T01:10:04;28.70;;;17.60;;
3597;SDS011;1813;52.016;8.714;2023-03-01T01:12:43;30.60;;;18.73;;
3597;SDS011;1813;52.016;8.714;2023-03-01T01:15:18;30.10;;;19.13;;
3597;SDS011;1813;52.016;8.714;2023-03-01T01:17:54;30.33;;;18.10;;
3597;SDS011;1813;52.016;8.714;2023-03-01T01:20:28;26.47;;;17.43;;
3597;SDS011;1813;52.016;8.714;2023-03-01T01:23:04;36.27;;;18.27;;
3597;SDS011;1813;52.016;8.714;2023-03-01T01:25:40;35.50;;;19.17;;
3597;SDS011;1813;52.016;8.714;2023-03-01T01:28:14;27.20;;;17.27;;
3597;SDS011;1813;52.016;8.714;2023-03-01T01:30:48;31.47;;;18.33;;
3597;SDS011;1813;52.016;8.714;2023-03-01T01:33:24;28.43;;;18.30;;
3597;SDS011;1813;52.016;8.714;2023-03-01T01:35:59;30.60;;;18.87;;
3597;SDS011;1813;52.016;8.714;2023-03-01T01:38:33;30.90;;;19.13;;
3597;SDS011;1813;52.016;8.714;2023-03-01T01:41:08;34.73;;;19.40;;
3597;SDS011;1813;52.016;8.714;2023-03-01T01:43:44;31.93;;;19.83;;
3597;SDS011;1813;52.016;8.714;2023-03-01T01:46:21;33.07;;;20.27;;
3597;SDS011;1813;52.016;8.714;2023-03-01T01:49:05;29.50;;;19.30;;
3597;SDS011;1813;52.016;8.714;2023-03-01T01:51:44;31.93;;;20.00;;
3597;SDS011;1813;52.016;8.714;2023-03-01T01:54:21;30.43;;;19.50;;
3597;SDS011;1813;52.016;8.714;2023-03-01T01:57:01;31.67;;;19.77;;
3597;SDS011;1813;52.016;8.714;2023-03-01T01:59:41;32.20;;;19.63;;
3597;SDS011;1813;52.016;8.714;2023-03-01T02:02:18;27.13;;;18.20;;
3597;SDS011;1813;52.016;8.714;2023-03-01T02:04:55;27.33;;;18.10;;
3597;SDS011;1813;52.016;8.714;2023-03-01T02:07:42;30.83;;;19.43;;
3597;SDS011;1813;52.016;8.714;2023-03-01T02:10:18;31.80;;;19.43;;
3597;SDS011;1813;52.016;8.714;2023-03-01T02:12:53;29.47;;;17.80;;
3597;SDS011;1813;52.016;8.714;2023-03-01T02:15:27;28.53;;;18.37;;
3597;SDS011;1813;52.016;8.714;2023-03-01T02:18:06;28.03;;;17.97;;
3597;SDS011;1813;52.016;8.714;2023-03-01T02:20:48;28.30;;;18.70;;
3597;SDS011;1813;52.016;8.714;2023-03-01T02:23:34;29.50;;;17.70;;
3597;SDS011;1813;52.016;8.714;2023-03-01T02:26:14;26.77;;;17.10;;
3597;SDS011;1813;52.016;8.714;2023-03-01T02:28:57;26.33;;;17.53;;
3597;SDS011;1813;52.016;8.714;2023-03-01T02:31:30;27.80;;;17.27;;
3597;SDS011;1813;52.016;8.714;2023-03-01T02:34:17;28.90;;;18.13;;
3597;SDS011;1813;52.016;8.714;2023-03-01T02:36:56;26.70;;;17.00;;
3597;SDS011;1813;52.016;8.714;2023-03-01T02:39:36;26.77;;;17.00;;
3597;SDS011;1813;52.016;8.714;2023-03-01T02:42:14;30.30;;;18.47;;
3597;SDS011;1813;52.016;8.714;2023-03-01T02:44:55;31.37;;;17.80;;
3597;SDS011;1813;52.016;8.714;2023-03-01T02:47:29;28.37;;;18.10;;
3597;SDS011;1813;52.016;8.714;2023-03-01T02:50:04;29.77;;;19.20;;
3597;SDS011;1813;52.016;8.714;2023-03-01T02:52:50;30.30;;;18.80;;
3597;SDS011;1813;52.016;8.714;2023-03-01T02:55:31;28.13;;;18.30;;
3597;SDS011;1813;52.016;8.714;2023-03-01T02:58:06;32.13;;;19.90;;
3597;SDS011;1813;52.016;8.714;2023-03-01T03:00:43;31.00;;;19.83;;
3597;SDS011;1813;52.016;8.714;2023-03-01T03:03:20;30.70;;;19.93;;
3597;SDS011;1813;52.016;8.714;2023-03-01T03:05:55;35.93;;;21.03;;
3597;SDS011;1813;52.016;8.714;2023-03-01T03:08:29;37.33;;;19.77;;
3597;SDS011;1813;52.016;8.714;2023-03-01T03:11:03;30.90;;;20.43;;
3597;SDS011;1813;52.016;8.714;2023-03-01T03:13:37;30.00;;;18.60;;
3597;SDS011;1813;52.016;8.714;2023-03-01T03:16:21;31.50;;;19.90;;
3597;SDS011;1813;52.016;8.714;2023-03-01T03:18:55;30.60;;;18.20;;
3597;SDS011;1813;52.016;8.714;2023-03-01T03:21:35;30.97;;;18.80;;
3597;SDS011;1813;52.016;8.714;2023-03-01T03:24:09;32.20;;;19.23;;
3597;SDS011;1813;52.016;8.714;2023-03-01T03:26:44;29.33;;;18.60;;
3597;SDS011;1813;52.016;8.714;2023-03-01T03:29:18;28.07;;;18.50;;
3597;SDS011;1813;52.016;8.714;2023-03-01T03:31:55;31.37;;;18.67;;
3597;SDS011;1813;52.016;8.714;2023-03-01T03:34:28;26.57;;;18.27;;
3597;SDS011;1813;52.016;8.714;2023-03-01T03:37:03;30.13;;;18.97;;
3597;SDS011;1813;52.016;8.714;2023-03-01T03:39:59;28.83;;;18.50;;
3597;SDS011;1813;52.016;8.714;2023-03-01T03:42:33;30.10;;;18.00;;
3597;SDS011;1813;52.016;8.714;2023-03-01T03:45:08;30.60;;;18.83;;
3597;SDS011;1813;52.016;8.714;2023-03-01T03:47:45;27.60;;;17.57;;
3597;SDS011;1813;52.016;8.714;2023-03-01T03:50:19;29.40;;;17.90;;
3597;SDS011;1813;52.016;8.714;2023-03-01T03:52:53;28.60;;;17.90;;
3597;SDS011;1813;52.016;8.714;2023-03-01T03:55:26;34.20;;;18.70;;
3597;SDS011;1813;52.016;8.714;2023-03-01T03:58:02;28.57;;;17.40;;
3597;SDS011;1813;52.016;8.714;2023-03-01T04:00:38;30.53;;;18.30;;
3597;SDS011;1813;52.016;8.714;2023-03-01T04:03:17;27.70;;;17.50;;
3597;SDS011;1813;52.016;8.714;2023-03-01T04:05:52;30.63;;;17.50;;
3597;SDS011;1813;52.016;8.714;2023-03-01T04:08:26;28.33;;;17.30;;
3597;SDS011;1813;52.016;8.714;2023-03-01T04:11:02;26.87;;;16.93;;
3597;SDS011;1813;52.016;8.714;2023-03-01T04:13:49;29.80;;;18.10;;
3597;SDS011;1813;52.016;8.714;2023-03-01T04:16:25;30.17;;;17.50;;
3597;SDS011;1813;52.016;8.714;2023-03-01T04:19:02;31.00;;;18.60;;
3597;SDS011;1813;52.016;8.714;2023-03-01T04:21:36;29.00;;;18.40;;
3597;SDS011;1813;52.016;8.714;2023-03-01T04:24:10;33.70;;;18.47;;
3597;SDS011;1813;52.016;8.714;2023-03-01T04:26:44;30.43;;;18.10;;
3597;SDS011;1813;52.016;8.714;2023-03-01T04:29:18;30.90;;;18.67;;
3597;SDS011;1813;52.016;8.714;2023-03-01T04:31:52;26.67;;;17.70;;
3597;SDS011;1813;52.016;8.714;2023-03-01T04:34:28;28.93;;;16.80;;
3597;SDS011;1813;52.016;8.714;2023-03-01T04:37:03;31.73;;;17.17;;
3597;SDS011;1813;52.016;8.714;2023-03-01T04:39:37;26.97;;;17.03;;
3597;SDS011;1813;52.016;8.714;2023-03-01T04:42:18;25.53;;;17.23;;
3597;SDS011;1813;52.016;8.714;2023-03-01T04:44:52;26.40;;;16.50;;
3597;SDS011;1813;52.016;8.714;2023-03-01T04:47:26;34.17;;;17.30;;
3597;SDS011;1813;52.016;8.714;2023-03-01T04:50:03;29.77;;;17.47;;
3597;SDS011;1813;52.016;8.714;2023-03-01T04:52:38;29.93;;;18.03;;
3597;SDS011;1813;52.016;8.714;2023-03-01T04:55:12;28.83;;;17.60;;
3597;SDS011;1813;52.016;8.714;2023-03-01T04:57:47;29.60;;;18.20;;
3597;SDS011;1813;52.016;8.714;2023-03-01T05:00:21;30.70;;;18.83;;
3597;SDS011;1813;52.016;8.714;2023-03-01T05:02:56;29.30;;;18.13;;
3597;SDS011;1813;52.016;8.714;2023-03-01T05:05:36;27.87;;;17.70;;
3597;SDS011;1813;52.016;8.714;2023-03-01T05:08:12;28.80;;;17.40;;
3597;SDS011;1813;52.016;8.714;2023-03-01T05:10:51;28.47;;;16.87;;
3597;SDS011;1813;52.016;8.714;2023-03-01T05:13:25;32.53;;;17.60;;
3597;SDS011;1813;52.016;8.714;2023-03-01T05:16:00;28.73;;;17.20;;
3597;SDS011;1813;52.016;8.714;2023-03-01T05:18:38;26.60;;;16.93;;
3597;SDS011;1813;52.016;8.714;2023-03-01T05:21:16;26.30;;;16.60;;
3597;SDS011;1813;52.016;8.714;2023-03-01T05:23:50;28.90;;;16.77;;
3597;SDS011;1813;52.016;8.714;2023-03-01T05:26:24;26.00;;;17.00;;
3597;SDS011;1813;52.016;8.714;2023-03-01T05:28:59;25.83;;;16.13;;
3597;SDS011;1813;52.016;8.714;2023-03-01T05:31:35;32.80;;;16.37;;
3597;SDS011;1813;52.016;8.714;2023-03-01T05:34:09;27.50;;;16.30;;
3597;SDS011;1813;52.016;8.714;2023-03-01T05:36:45;23.60;;;15.27;;
3597;SDS011;1813;52.016;8.714;2023-03-01T05:39:22;27.53;;;16.20;;
3597;SDS011;1813;52.016;8.714;2023-03-01T05:41:58;26.80;;;16.00;;
3597;SDS011;1813;52.016;8.714;2023-03-01T05:44:34;25.57;;;16.00;;
3597;SDS011;1813;52.016;8.714;2023-03-01T05:47:08;26.50;;;15.47;;
3597;SDS011;1813;52.016;8.714;2023-03-01T05:49:42;25.87;;;16.33;;
3597;SDS011;1813;52.016;8.714;2023-03-01T05:52:18;23.30;;;15.33;;
3597;SDS011;1813;52.016;8.714;2023-03-01T05:54:52;26.07;;;15.87;;
3597;SDS011;1813;52.016;8.714;2023-03-01T05:57:27;26.07;;;16.90;;
3597;SDS011;1813;52.016;8.714;2023-03-01T06:00:03;24.70;;;16.60;;
3597;SDS011;1813;52.016;8.714;2023-03-01T06:02:42;26.93;;;15.70;;
3597;SDS011;1813;52.016;8.714;2023-03-01T06:05:17;23.80;;;15.20;;
3597;SDS011;1813;52.016;8.714;2023-03-01T06:07:54;23.83;;;16.40;;
3597;SDS011;1813;52.016;8.714;2023-03-01T06:10:28;30.80;;;17.60;;
3597;SDS011;1813;52.016;8.714;2023-03-01T06:13:02;25.83;;;15.53;;
3597;SDS011;1813;52.016;8.714;2023-03-01T06:15:36;27.40;;;16.50;;
3597;SDS011;1813;52.016;8.714;2023-03-01T06:18:10;27.50;;;16.67;;
3597;SDS011;1813;52.016;8.714;2023-03-01T06:20:44;26.93;;;15.70;;
3597;SDS011;1813;52.016;8.714;2023-03-01T06:23:21;26.30;;;14.77;;
3597;SDS011;1813;52.016;8.714;2023-03-01T06:25:55;26.03;;;15.97;;
3597;SDS011;1813;52.016;8.714;2023-03-01T06:28:29;25.60;;;15.37;;
3597;SDS011;1813;52.016;8.714;2023-03-01T06:31:03;26.67;;;16.27;;
3597;SDS011;1813;52.016;8.714;2023-03-01T06:33:39;23.70;;;15.00;;
3597;SDS011;1813;52.016;8.714;2023-03-01T06:36:15;29.80;;;17.20;;
3597;SDS011;1813;52.016;8.714;2023-03-01T06:38:54;25.93;;;16.53;;
3597;SDS011;1813;52.016;8.714;2023-03-01T06:41:28;28.07;;;17.50;;
3597;SDS011;1813;52.016;8.714;2023-03-01T06:44:02;31.87;;;17.67;;
3597;SDS011;1813;52.016;8.714;2023-03-01T06:46:35;26.43;;;17.10;;
3597;SDS011;1813;52.016;8.714;2023-03-01T06:49:09;25.90;;;17.40;;
3597;SDS011;1813;52.016;8.714;2023-03-01T06:51:43;26.13;;;16.93;;
3597;SDS011;1813;52.016;8.714;2023-03-01T06:54:20;29.23;;;17.03;;
3597;SDS011;1813;52.016;8.714;2023-03-01T06:56:54;29.80;;;17.00;;
3597;SDS011;1813;52.016;8.714;2023-03-01T06:59:28;28.47;;;17.30;;
3597;SDS011;1813;52.016;8.714;2023-03-01T07:02:03;28.77;;;17.70;;
3597;SDS011;1813;52.016;8.714;2023-03-01T07:04:37;31.20;;;19.20;;
3597;SDS011;1813;52.016;8.714;2023-03-01T07:07:11;33.97;;;19.63;;
3597;SDS011;1813;52.016;8.714;2023-03-01T07:09:49;31.77;;;18.90;;
3597;SDS011;1813;52.016;8.714;2023-03-01T07:12:24;32.30;;;19.00;;
3597;SDS011;1813;52.016;8.714;2023-03-01T07:14:58;27.47;;;17.00;;
3597;SDS011;1813;52.016;8.714;2023-03-01T07:17:32;25.00;;;16.10;;
3597;SDS011;1813;52.016;8.714;2023-03-01T07:20:06;26.27;;;15.53;;
3597;SDS011;1813;52.016;8.714;2023-03-01T07:22:40;27.10;;;16.90;;
3597;SDS011;1813;52.016;8.714;2023-03-01T07:25:17;27.10;;;16.67;;
3597;SDS011;1813;52.016;8.714;2023-03-01T07:27:51;28.20;;;17.13;;
3597;SDS011;1813;52.016;8.714;2023-03-01T07:30:26;28.00;;;15.70;;
3597;SDS011;1813;52.016;8.714;2023-03-01T07:33:00;26.30;;;15.53;;
3597;SDS011;1813;52.016;8.714;2023-03-01T07:35:35;27.50;;;16.30;;
3597;SDS011;1813;52.016;8.714;2023-03-01T07:38:09;25.20;;;14.70;;
3597;SDS011;1813;52.016;8.714;2023-03-01T07:40:46;36.37;;;16.67;;
3597;SDS011;1813;52.016;8.714;2023-03-01T07:43:20;23.07;;;14.87;;
3597;SDS011;1813;52.016;8.714;2023-03-01T07:45:54;24.97;;;15.60;;
3597;SDS011;1813;52.016;8.714;2023-03-01T07:48:30;21.60;;;14.27;;
3597;SDS011;1813;52.016;8.714;2023-03-01T07:51:05;26.33;;;15.07;;
3597;SDS011;1813;52.016;8.714;2023-03-01T07:53:40;24.53;;;15.73;;
3597;SDS011;1813;52.016;8.714;2023-03-01T07:56:19;25.57;;;15.27;;
3597;SDS011;1813;52.016;8.714;2023-03-01T07:58:53;22.97;;;14.43;;
3597;SDS011;1813;52.016;8.714;2023-03-01T08:01:27;24.70;;;15.50;;
3597;SDS011;1813;52.016;8.714;2023-03-01T08:04:01;21.50;;;14.53;;
3597;SDS011;1813;52.016;8.714;2023-03-01T08:06:37;22.97;;;15.20;;
3597;SDS011;1813;52.016;8.714;2023-03-01T08:09:11;22.17;;;14.50;;
3597;SDS011;1813;52.016;8.714;2023-03-01T08:11:47;24.23;;;14.40;;
3597;SDS011;1813;52.016;8.714;2023-03-01T08:14:21;20.40;;;14.47;;
3597;SDS011;1813;52.016;8.714;2023-03-01T08:16:55;25.00;;;14.30;;
3597;SDS011;1813;52.016;8.714;2023-03-01T08:19:29;21.73;;;13.53;;
3597;SDS011;1813;52.016;8.714;2023-03-01T08:22:06;22.50;;;14.70;;
3597;SDS011;1813;52.016;8.714;2023-03-01T08:24:40;25.30;;;15.53;;
3597;SDS011;1813;52.016;8.714;2023-03-01T08:27:19;23.30;;;15.43;;
3597;SDS011;1813;52.016;8.714;2023-03-01T08:29:53;21.53;;;14.90;;
3597;SDS011;1813;52.016;8.714;2023-03-01T08:32:27;20.30;;;14.43;;
3597;SDS011;1813;52.016;8.714;2023-03-01T08:35:01;20.93;;;14.37;;
3597;SDS011;1813;52.016;8.714;2023-03-01T08:37:34;20.70;;;13.97;;
3597;SDS011;1813;52.016;8.714;2023-03-01T08:40:09;20.30;;;13.23;;
3597;SDS011;1813;52.016;8.714;2023-03-01T08:42:48;21.10;;;12.80;;
3597;SDS011;1813;52.016;8.714;2023-03-01T08:45:21;19.53;;;13.00;;
3597;SDS011;1813;52.016;8.714;2023-03-01T08:47:55;22.50;;;13.93;;
3597;SDS011;1813;52.016;8.714;2023-03-01T08:50:30;21.73;;;14.67;;
3597;SDS011;1813;52.016;8.714;2023-03-01T08:53:04;28.60;;;13.70;;
3597;SDS011;1813;52.016;8.714;2023-03-01T08:55:39;20.30;;;13.10;;
3597;SDS011;1813;52.016;8.714;2023-03-01T08:58:16;18.63;;;12.87;;
3597;SDS011;1813;52.016;8.714;2023-03-01T09:00:49;18.87;;;12.97;;
3597;SDS011;1813;52.016;8.714;2023-03-01T09:03:24;22.07;;;14.10;;
3597;SDS011;1813;52.016;8.714;2023-03-01T09:05:59;19.40;;;13.37;;
3597;SDS011;1813;52.016;8.714;2023-03-01T09:08:34;20.83;;;13.60;;
3597;SDS011;1813;52.016;8.714;2023-03-01T09:11:09;21.43;;;14.20;;
3597;SDS011;1813;52.016;8.714;2023-03-01T09:13:50;23.77;;;13.80;;
3597;SDS011;1813;52.016;8.714;2023-03-01T09:16:23;21.47;;;14.77;;
3597;SDS011;1813;52.016;8.714;2023-03-01T09:19:00;19.53;;;14.00;;
3597;SDS011;1813;52.016;8.714;2023-03-01T09:21:34;22.90;;;13.60;;
3597;SDS011;1813;52.016;8.714;2023-03-01T09:24:11;20.57;;;13.90;;
3597;SDS011;1813;52.016;8.714;2023-03-01T09:26:46;21.70;;;14.30;;
3597;SDS011;1813;52.016;8.714;2023-03-01T09:29:23;22.87;;;13.97;;
3597;SDS011;1813;52.016;8.714;2023-03-01T09:31:57;22.47;;;13.50;;
3597;SDS011;1813;52.016;8.714;2023-03-01T09:34:32;21.73;;;13.90;;
3597;SDS011;1813;52.016;8.714;2023-03-01T09:37:26;19.27;;;12.93;;
3597;SDS011;1813;52.016;8.714;2023-03-01T09:40:00;21.20;;;13.93;;
3597;SDS011;1813;52.016;8.714;2023-03-01T09:42:35;20.70;;;13.83;;
3597;SDS011;1813;52.016;8.714;2023-03-01T09:45:23;20.20;;;12.87;;
3597;SDS011;1813;52.016;8.714;2023-03-01T09:48:00;20.23;;;13.50;;
3597;SDS011;1813;52.016;8.714;2023-03-01T09:50:38;21.13;;;13.97;;
3597;SDS011;1813;52.016;8.714;2023-03-01T09:53:15;20.30;;;13.83;;
3597;SDS011;1813;52.016;8.714;2023-03-01T09:55:53;19.27;;;13.20;;
3597;SDS011;1813;52.016;8.714;2023-03-01T09:58:37;21.53;;;13.20;;
3597;SDS011;1813;52.016;8.714;2023-03-01T10:01:29;20.80;;;13.87;;
3597;SDS011;1813;52.016;8.714;2023-03-01T10:04:12;21.97;;;14.30;;
3597;SDS011;1813;52.016;8.714;2023-03-01T10:07:06;34.53;;;13.17;;
3597;SDS011;1813;52.016;8.714;2023-03-01T10:09:53;20.20;;;12.57;;
3597;SDS011;1813;52.016;8.714;2023-03-01T10:12:32;20.40;;;12.30;;
3597;SDS011;1813;52.016;8.714;2023-03-01T10:15:11;18.53;;;11.90;;
3597;SDS011;1813;52.016;8.714;2023-03-01T10:17:55;18.00;;;11.73;;
3597;SDS011;1813;52.016;8.714;2023-03-01T10:20:41;16.93;;;11.93;;
3597;SDS011;1813;52.016;8.714;2023-03-01T10:23:20;20.93;;;12.27;;
3597;SDS011;1813;52.016;8.714;2023-03-01T10:26:07;17.60;;;11.63;;
3597;SDS011;1813;52.016;8.714;2023-03-01T10:28:54;19.13;;;12.60;;
3597;SDS011;1813;52.016;8.714;2023-03-01T10:31:39;19.17;;;10.90;;
3597;SDS011;1813;52.016;8.714;2023-03-01T10:34:20;17.17;;;10.10;;
3597;SDS011;1813;52.016;8.714;2023-03-01T10:36:56;17.10;;;10.47;;
3597;SDS011;1813;52.016;8.714;2023-03-01T10:39:54;14.33;;;9.40;;
3597;SDS011;1813;52.016;8.714;2023-03-01T10:42:30;12.33;;;7.27;;
3597;SDS011;1813;52.016;8.714;2023-03-01T10:45:15;13.50;;;8.07;;
3597;SDS011;1813;52.016;8.714;2023-03-01T10:48:01;13.10;;;7.70;;
3597;SDS011;1813;52.016;8.714;2023-03-01T10:50:40;15.23;;;8.07;;
3597;SDS011;1813;52.016;8.714;2023-03-01T10:53:20;14.00;;;8.00;;
3597;SDS011;1813;52.016;8.714;2023-03-01T10:55:59;13.90;;;7.80;;
3597;SDS011;1813;52.016;8.714;2023-03-01T10:58:38;11.73;;;7.30;;
3597;SDS011;1813;52.016;8.714;2023-03-01T11:01:29;11.80;;;7.37;;
3597;SDS011;1813;52.016;8.714;2023-03-01T11:04:10;10.33;;;7.20;;
3597;SDS011;1813;52.016;8.714;2023-03-01T11:06:57;11.27;;;7.13;;
3597;SDS011;1813;52.016;8.714;2023-03-01T11:09:33;9.10;;;6.50;;
3597;SDS011;1813;52.016;8.714;2023-03-01T11:12:13;9.50;;;6.67;;
3597;SDS011;1813;52.016;8.714;2023-03-01T11:14:49;10.60;;;7.07;;
3597;SDS011;1813;52.016;8.714;2023-03-01T11:17:27;10.47;;;6.43;;
3597;SDS011;1813;52.016;8.714;2023-03-01T11:20:06;11.63;;;7.10;;
3597;SDS011;1813;52.016;8.714;2023-03-01T11:22:53;8.87;;;6.00;;
3597;SDS011;1813;52.016;8.714;2023-03-01T11:25:31;10.10;;;6.77;;
3597;SDS011;1813;52.016;8.714;2023-03-01T11:28:10;9.10;;;6.33;;
3597;SDS011;1813;52.016;8.714;2023-03-01T11:30:48;9.87;;;6.70;;
3597;SDS011;1813;52.016;8.714;2023-03-01T11:33:33;12.87;;;7.37;;
3597;SDS011;1813;52.016;8.714;2023-03-01T11:36:13;10.43;;;7.47;;
3597;SDS011;1813;52.016;8.714;2023-03-01T11:38:58;11.43;;;6.83;;
3597;SDS011;1813;52.016;8.714;2023-03-01T11:41:38;10.70;;;7.27;;
3597;SDS011;1813;52.016;8.714;2023-03-01T11:44:16;11.57;;;6.80;;
3597;SDS011;1813;52.016;8.714;2023-03-01T11:47:04;9.70;;;6.90;;
3597;SDS011;1813;52.016;8.714;2023-03-01T11:52:54;9.77;;;6.67;;
3597;SDS011;1813;52.016;8.714;2023-03-01T11:55:47;10.17;;;7.10;;
3597;SDS011;1813;52.016;8.714;2023-03-01T11:58:36;9.73;;;6.57;;
3597;SDS011;1813;52.016;8.714;2023-03-01T12:04:20;10.40;;;7.20;;
3597;SDS011;1813;52.016;8.714;2023-03-01T12:07:10;12.70;;;7.70;;
3597;SDS011;1813;52.016;8.714;2023-03-01T12:09:52;12.20;;;6.70;;
3597;SDS011;1813;52.016;8.714;2023-03-01T12:12:41;12.60;;;7.10;;
3597;SDS011;1813;52.016;8.714;2023-03-01T12:15:33;10.63;;;6.87;;
3597;SDS011;1813;52.016;8.714;2023-03-01T12:21:12;10.90;;;7.47;;
3597;SDS011;1813;52.016;8.714;2023-03-01T12:27:02;10.67;;;6.80;;
3597;SDS011;1813;52.016;8.714;2023-03-01T12:29:50;9.50;;;6.27;;
3597;SDS011;1813;52.016;8.714;2023-03-01T12:32:39;9.43;;;6.47;;
3597;SDS011;1813;52.016;8.714;2023-03-01T12:35:35;9.60;;;6.03;;
3597;SDS011;1813;52.016;8.714;2023-03-01T12:38:31;10.00;;;6.50;;
3597;SDS011;1813;52.016;8.714;2023-03-01T12:41:21;9.17;;;6.53;;
3597;SDS011;1813;52.016;8.714;2023-03-01T12:44:10;13.00;;;7.03;;
3597;SDS011;1813;52.016;8.714;2023-03-01T12:47:00;11.00;;;6.17;;
3597;SDS011;1813;52.016;8.714;2023-03-01T12:49:45;17.03;;;6.60;;
3597;SDS011;1813;52.016;8.714;2023-03-01T12:52:25;9.30;;;6.47;;
3597;SDS011;1813;52.016;8.714;2023-03-01T12:55:08;8.60;;;5.70;;
3597;SDS011;1813;52.016;8.714;2023-03-01T12:58:00;9.90;;;5.80;;
3597;SDS011;1813;52.016;8.714;2023-03-01T13:00:40;7.67;;;5.40;;
3597;SDS011;1813;52.016;8.714;2023-03-01T13:03:51;7.20;;;5.00;;
3597;SDS011;1813;52.016;8.714;2023-03-01T13:06:49;7.37;;;5.00;;
3597;SDS011;1813;52.016;8.714;2023-03-01T13:09:34;6.83;;;5.00;;
3597;SDS011;1813;52.016;8.714;2023-03-01T13:15:27;7.50;;;5.33;;
3597;SDS011;1813;52.016;8.714;2023-03-01T13:18:04;14.60;;;4.83;;
3597;SDS011;1813;52.016;8.714;2023-03-01T13:21:05;8.67;;;5.27;;
3597;SDS011;1813;52.016;8.714;2023-03-01T13:23:39;10.90;;;5.07;;
3597;SDS011;1813;52.016;8.714;2023-03-01T13:26:14;9.80;;;5.37;;
3597;SDS011;1813;52.016;8.714;2023-03-01T13:28:51;10.77;;;5.40;;
3597;SDS011;1813;52.016;8.714;2023-03-01T13:37:28;7.83;;;5.00;;
3597;SDS011;1813;52.016;8.714;2023-03-01T13:40:07;7.00;;;4.77;;
3597;SDS011;1813;52.016;8.714;2023-03-01T13:43:27;8.93;;;5.13;;
3597;SDS011;1813;52.016;8.714;2023-03-01T13:46:07;7.53;;;4.90;;
3597;SDS011;1813;52.016;8.714;2023-03-01T13:48:45;7.50;;;4.67;;
3597;SDS011;1813;52.016;8.714;2023-03-01T13:51:25;7.80;;;4.80;;
3597;SDS011;1813;52.016;8.714;2023-03-01T13:54:03;7.40;;;4.63;;
3597;SDS011;1813;52.016;8.714;2023-03-01T13:56:37;7.87;;;4.97;;
3597;SDS011;1813;52.016;8.714;2023-03-01T13:59:14;9.20;;;5.20;;
3597;SDS011;1813;52.016;8.714;2023-03-01T14:01:51;7.57;;;5.30;;
3597;SDS011;1813;52.016;8.714;2023-03-01T14:04:28;7.17;;;5.37;;
3597;SDS011;1813;52.016;8.714;2023-03-01T14:07:10;12.03;;;5.93;;
3597;SDS011;1813;52.016;8.714;2023-03-01T14:09:48;10.60;;;5.50;;
3597;SDS011;1813;52.016;8.714;2023-03-01T14:12:27;6.60;;;5.17;;
3597;SDS011;1813;52.016;8.714;2023-03-01T14:15:15;9.47;;;5.50;;
3597;SDS011;1813;52.016;8.714;2023-03-01T14:17:55;5.93;;;4.80;;
3597;SDS011;1813;52.016;8.714;2023-03-01T14:20:38;7.20;;;4.93;;
3597;SDS011;1813;52.016;8.714;2023-03-01T14:23:17;9.03;;;5.43;;
3597;SDS011;1813;52.016;8.714;2023-03-01T14:25:56;7.70;;;5.33;;
3597;SDS011;1813;52.016;8.714;2023-03-01T14:28:31;14.00;;;5.60;;
3597;SDS011;1813;52.016;8.714;2023-03-01T14:34:05;10.63;;;5.37;;
3597;SDS011;1813;52.016;8.714;2023-03-01T14:36:39;9.03;;;5.23;;
3597;SDS011;1813;52.016;8.714;2023-03-01T14:39:16;8.60;;;5.03;;
3597;SDS011;1813;52.016;8.714;2023-03-01T14:41:55;6.97;;;4.80;;
3597;SDS011;1813;52.016;8.714;2023-03-01T14:44:32;7.07;;;4.70;;
3597;SDS011;1813;52.016;8.714;2023-03-01T14:47:10;6.60;;;4.63;;
3597;SDS011;1813;52.016;8.714;2023-03-01T14:49:46;6.60;;;4.60;;
3597;SDS011;1813;52.016;8.714;2023-03-01T14:52:25;5.20;;;4.33;;
3597;SDS011;1813;52.016;8.714;2023-03-01T14:55:15;9.03;;;4.53;;
3597;SDS011;1813;52.016;8.714;2023-03-01T14:57:54;12.03;;;4.70;;
3597;SDS011;1813;52.016;8.714;2023-03-01T15:00:28;6.67;;;4.90;;
3597;SDS011;1813;52.016;8.714;2023-03-01T15:03:07;8.73;;;5.20;;
3597;SDS011;1813;52.016;8.714;2023-03-01T15:05:45;7.67;;;4.83;;
3597;SDS011;1813;52.016;8.714;2023-03-01T15:08:20;6.37;;;4.73;;
3597;SDS011;1813;52.016;8.714;2023-03-01T15:10:58;8.50;;;4.93;;
3597;SDS011;1813;52.016;8.714;2023-03-01T15:13:37;8.27;;;4.90;;
3597;SDS011;1813;52.016;8.714;2023-03-01T15:16:11;6.77;;;5.27;;
3597;SDS011;1813;52.016;8.714;2023-03-01T15:18:47;7.67;;;5.20;;
3597;SDS011;1813;52.016;8.714;2023-03-01T15:21:25;7.50;;;5.33;;
3597;SDS011;1813;52.016;8.714;2023-03-01T15:24:02;9.07;;;5.47;;
3597;SDS011;1813;52.016;8.714;2023-03-01T15:26:42;10.63;;;5.57;;
3597;SDS011;1813;52.016;8.714;2023-03-01T15:29:21;7.83;;;5.07;;
3597;SDS011;1813;52.016;8.714;2023-03-01T15:32:01;7.73;;;5.50;;
3597;SDS011;1813;52.016;8.714;2023-03-01T15:34:37;7.20;;;5.07;;
3597;SDS011;1813;52.016;8.714;2023-03-01T15:37:35;7.13;;;4.87;;
3597;SDS011;1813;52.016;8.714;2023-03-01T15:40:18;7.10;;;5.07;;
3597;SDS011;1813;52.016;8.714;2023-03-01T15:43:03;6.13;;;4.37;;
3597;SDS011;1813;52.016;8.714;2023-03-01T15:45:44;7.20;;;4.63;;
3597;SDS011;1813;52.016;8.714;2023-03-01T15:48:31;7.10;;;5.20;;
3597;SDS011;1813;52.016;8.714;2023-03-01T15:51:09;9.83;;;5.30;;
3597;SDS011;1813;52.016;8.714;2023-03-01T15:53:48;9.50;;;5.13;;
3597;SDS011;1813;52.016;8.714;2023-03-01T15:56:24;6.80;;;5.13;;
3597;SDS011;1813;52.016;8.714;2023-03-01T15:58:58;9.27;;;5.83;;
3597;SDS011;1813;52.016;8.714;2023-03-01T16:01:36;10.80;;;5.70;;
3597;SDS011;1813;52.016;8.714;2023-03-01T16:04:10;10.53;;;5.60;;
3597;SDS011;1813;52.016;8.714;2023-03-01T16:06:50;7.40;;;5.53;;
3597;SDS011;1813;52.016;8.714;2023-03-01T16:09:27;9.87;;;5.43;;
3597;SDS011;1813;52.016;8.714;2023-03-01T16:12:02;7.23;;;5.40;;
3597;SDS011;1813;52.016;8.714;2023-03-01T16:14:37;10.87;;;5.57;;
3597;SDS011;1813;52.016;8.714;2023-03-01T16:17:13;8.40;;;5.63;;
3597;SDS011;1813;52.016;8.714;2023-03-01T16:19:47;11.93;;;5.80;;
3597;SDS011;1813;52.016;8.714;2023-03-01T16:22:21;9.57;;;5.97;;
3597;SDS011;1813;52.016;8.714;2023-03-01T16:24:55;12.20;;;6.07;;